createdAt,value
2018-07-25T00:00:19.911Z,89.63
2018-07-25T00:02:48.507Z,89.33
2018-07-25T00:05:17.099Z,89.76
2018-07-25T00:07:45.653Z,89.72
2018-07-25T00:10:14.258Z,89.41
2018-07-25T00:12:43.044Z,89.22
2018-07-25T00:15:11.746Z,89.03
2018-07-25T00:17:40.507Z,89.70
2018-07-25T00:20:09.179Z,89.92
2018-07-25T00:22:37.974Z,89.71
2018-07-25T00:25:06.647Z,89.64
2018-07-25T00:27:35.390Z,89.71
2018-07-25T00:30:04.364Z,89.55
2018-07-25T00:32:34.343Z,90.25
2018-07-25T00:35:03.094Z,90.43
2018-07-25T00:37:31.679Z,90.52
2018-07-25T00:40:00.728Z,90.86
2018-07-25T00:42:29.365Z,90.22
2018-07-25T00:44:58.108Z,90.64
2018-07-25T00:47:27.539Z,90.70
2018-07-25T00:49:56.814Z,90.30
2018-07-25T00:52:25.392Z,90.45
2018-07-25T00:54:54.039Z,90.98
2018-07-25T00:57:22.648Z,90.79
2018-07-25T00:59:51.317Z,90.71
2018-07-25T01:02:19.884Z,91.10
2018-07-25T01:04:51.269Z,90.86
2018-07-25T01:07:19.963Z,90.91
2018-07-25T01:09:48.567Z,91.08
2018-07-25T01:12:17.837Z,91.22
2018-07-25T01:14:46.424Z,91.07
2018-07-25T01:17:15.053Z,90.89
2018-07-25T01:19:43.730Z,90.97
2018-07-25T01:22:12.477Z,91.38
2018-07-25T01:24:41.153Z,91.11
2018-07-25T01:27:09.920Z,91.11
2018-07-25T01:29:38.550Z,91.12
2018-07-25T01:32:07.349Z,91.15
2018-07-25T01:34:36.237Z,91.20
2018-07-25T01:37:04.948Z,91.34
2018-07-25T01:39:33.553Z,91.52
2018-07-25T01:42:02.456Z,91.75
2018-07-25T01:44:31.792Z,91.65
2018-07-25T01:47:00.480Z,91.70
2018-07-25T01:49:30.097Z,91.51
2018-07-25T01:51:58.887Z,91.84
2018-07-25T01:54:27.548Z,91.63
2018-07-25T01:56:56.430Z,91.12
2018-07-25T01:59:28.103Z,91.63
2018-07-25T02:01:58.358Z,91.69
2018-07-25T02:04:27.388Z,91.94
2018-07-25T02:06:56.010Z,92.21
2018-07-25T02:09:24.836Z,92.33
2018-07-25T02:11:53.445Z,92.82
2018-07-25T02:14:22.201Z,92.71
2018-07-25T02:16:50.844Z,92.51
2018-07-25T02:19:20.366Z,92.61
2018-07-25T02:21:48.979Z,92.69
2018-07-25T02:24:17.693Z,92.78
2018-07-25T02:26:46.693Z,92.97
2018-07-25T02:29:15.345Z,93.33
2018-07-25T02:31:43.940Z,92.95
2018-07-25T02:34:17.888Z,92.89
2018-07-25T02:36:47.234Z,93.25
2018-07-25T02:39:15.889Z,93.01
2018-07-25T02:41:45.264Z,92.67
2018-07-25T02:44:14.391Z,92.96
2018-07-25T02:46:43.108Z,93.78
2018-07-25T02:49:11.758Z,93.84
2018-07-25T02:51:40.508Z,93.53
2018-07-25T02:54:09.888Z,93.53
2018-07-25T02:56:38.468Z,93.69
2018-07-25T02:59:07.238Z,93.47
2018-07-25T03:01:36.170Z,93.79
2018-07-25T03:04:04.801Z,93.56
2018-07-25T03:06:34.288Z,93.85
2018-07-25T03:09:04.145Z,93.52
2018-07-25T03:11:32.670Z,93.37
2018-07-25T03:14:01.625Z,93.89
2018-07-25T03:16:30.320Z,94.37
2018-07-25T03:18:58.911Z,94.51
2018-07-25T03:21:27.529Z,94.43
2018-07-25T03:23:56.111Z,94.28
2018-07-25T03:26:24.771Z,94.02
2018-07-25T03:28:53.487Z,94.39
2018-07-25T03:31:22.317Z,94.43
2018-07-25T03:33:50.947Z,94.74
2018-07-25T03:36:19.628Z,94.41
2018-07-25T03:38:48.186Z,94.78
2018-07-25T03:41:16.832Z,94.63
2018-07-25T03:43:45.490Z,94.81
2018-07-25T03:46:14.229Z,94.64
2018-07-25T03:48:42.907Z,94.35
2018-07-25T03:51:11.612Z,94.60
2018-07-25T03:53:40.227Z,94.50
2018-07-25T03:56:08.937Z,94.87
2018-07-25T03:58:39.166Z,94.85
2018-07-25T04:01:08.420Z,94.27
2018-07-25T04:03:37.293Z,94.40
2018-07-25T04:06:05.923Z,94.23
2018-07-25T04:08:34.736Z,94.32
2018-07-25T04:11:03.438Z,93.65
2018-07-25T04:13:32.157Z,93.81
2018-07-25T04:16:00.783Z,93.53
2018-07-25T04:18:29.397Z,93.30
2018-07-25T04:20:58.042Z,93.31
2018-07-25T04:23:27.439Z,92.99
2018-07-25T04:25:56.129Z,92.92
2018-07-25T04:28:24.760Z,92.65
2018-07-25T04:30:54.068Z,92.38
2018-07-25T04:33:22.723Z,91.77
2018-07-25T04:35:51.364Z,92.21
2018-07-25T04:38:20.540Z,92.19
2018-07-25T04:40:49.208Z,92.20
2018-07-25T04:43:17.983Z,91.57
2018-07-25T04:45:46.645Z,91.37
2018-07-25T04:48:15.462Z,90.46
2018-07-25T04:50:44.172Z,90.41
2018-07-25T04:53:12.904Z,90.93
2018-07-25T04:55:42.206Z,91.18
2018-07-25T04:58:11.580Z,90.50
2018-07-25T05:00:40.346Z,89.80
2018-07-25T05:03:08.984Z,89.29
2018-07-25T05:05:38.170Z,88.29
2018-07-25T05:08:06.943Z,88.35
2018-07-25T05:10:35.585Z,88.03
2018-07-25T05:13:05.011Z,87.41
2018-07-25T05:15:33.720Z,86.54
2018-07-25T05:18:02.339Z,85.25
2018-07-25T05:20:30.900Z,84.13
2018-07-25T05:22:59.624Z,82.33
2018-07-25T05:25:28.346Z,80.13
2018-07-25T05:27:57.159Z,77.85
2018-07-25T05:30:25.966Z,75.34
2018-07-25T05:32:54.658Z,72.80
2018-07-25T05:35:23.316Z,70.76
2018-07-25T05:37:52.690Z,69.44
2018-07-25T05:40:21.376Z,69.10
2018-07-25T05:42:50.114Z,66.91
2018-07-25T05:45:18.785Z,66.00
2018-07-25T05:47:47.464Z,64.96
2018-07-25T05:50:16.221Z,64.47
2018-07-25T05:52:44.875Z,63.66
2018-07-25T05:55:13.706Z,62.09
2018-07-25T05:57:42.371Z,60.68
2018-07-25T06:00:11.267Z,59.27
2018-07-25T06:02:40.682Z,58.50
2018-07-25T06:05:09.910Z,57.60
2018-07-25T06:07:38.626Z,56.85
2018-07-25T06:10:07.359Z,55.82
2018-07-25T06:12:36.070Z,54.53
2018-07-25T06:15:05.335Z,53.09
2018-07-25T06:17:33.915Z,52.56
2018-07-25T06:20:02.557Z,51.73
2018-07-25T06:22:31.252Z,49.82
2018-07-25T06:24:59.926Z,49.41
2018-07-25T06:27:28.732Z,51.79
2018-07-25T06:29:57.441Z,51.66
2018-07-25T06:32:26.237Z,48.12
2018-07-25T06:34:55.482Z,47.45
2018-07-25T06:37:24.796Z,46.44
2018-07-25T06:39:54.096Z,45.19
2018-07-25T06:42:22.792Z,44.09
2018-07-25T06:44:51.437Z,42.82
2018-07-25T06:47:20.125Z,42.07
2018-07-25T06:49:48.910Z,43.00
2018-07-25T06:52:18.175Z,43.36
2018-07-25T06:54:46.940Z,43.88
2018-07-25T06:57:15.591Z,41.48
2018-07-25T06:59:44.351Z,41.85
2018-07-25T07:02:13.043Z,40.01
2018-07-25T07:04:41.637Z,38.80
2018-07-25T07:07:10.415Z,39.21
2018-07-25T07:09:39.780Z,39.05
2018-07-25T07:12:08.605Z,38.04
2018-07-25T07:14:37.176Z,37.47
2018-07-25T07:17:05.799Z,36.16
2018-07-25T07:19:34.644Z,35.60
2018-07-25T07:22:03.946Z,35.12
2018-07-25T07:24:32.675Z,34.66
2018-07-25T07:27:01.322Z,33.25
2018-07-25T07:29:29.957Z,33.41
2018-07-25T07:31:58.712Z,33.53
2018-07-25T07:34:27.337Z,32.24
2018-07-25T07:36:56.118Z,32.30
2018-07-25T07:39:24.912Z,32.47
2018-07-25T07:41:53.610Z,32.66
2018-07-25T07:44:22.920Z,31.98
2018-07-25T07:46:52.504Z,31.20
2018-07-25T07:49:21.270Z,29.95
2018-07-25T07:51:50.016Z,29.37
2018-07-25T07:54:18.821Z,30.11
2018-07-25T07:56:47.466Z,28.75
2018-07-25T07:59:16.282Z,29.74
2018-07-25T08:01:44.913Z,29.58
2018-07-25T08:04:14.387Z,28.42
2018-07-25T08:06:43.005Z,28.28
2018-07-25T08:09:13.306Z,27.14
2018-07-25T08:11:42.631Z,26.75
2018-07-25T08:14:11.373Z,26.60
2018-07-25T08:16:40.876Z,26.72
2018-07-25T08:19:11.494Z,26.63
2018-07-25T08:21:40.235Z,25.35
2018-07-25T08:24:09.027Z,24.56
2018-07-25T08:26:37.831Z,23.76
2018-07-25T08:29:06.952Z,24.71
2018-07-25T08:31:36.413Z,23.55
2018-07-25T08:34:05.026Z,23.77
2018-07-25T08:36:33.686Z,23.73
2018-07-25T08:39:02.328Z,21.83
2018-07-25T08:41:31.218Z,20.96
2018-07-25T08:44:00.195Z,21.62
2018-07-25T08:46:28.841Z,20.68
2018-07-25T08:48:57.505Z,20.29
2018-07-25T08:51:26.161Z,19.92
2018-07-25T08:53:54.926Z,20.40
2018-07-25T08:56:23.590Z,19.53
2018-07-25T08:58:53.201Z,18.33
2018-07-25T09:01:21.912Z,18.70
2018-07-25T09:03:50.637Z,18.71
2018-07-25T09:06:19.375Z,18.35
2018-07-25T09:08:48.031Z,18.93
2018-07-25T09:11:20.827Z,19.68
2018-07-25T09:13:49.438Z,16.91
2018-07-25T09:16:18.235Z,17.26
2018-07-25T09:18:47.603Z,16.31
2018-07-25T09:21:16.811Z,17.59
2018-07-25T09:23:45.559Z,17.56
2018-07-25T09:26:14.218Z,16.79
2018-07-25T09:28:42.870Z,16.08
2018-07-25T09:31:11.613Z,15.83
2018-07-25T09:33:40.425Z,15.94
2018-07-25T09:36:09.152Z,15.73
2018-07-25T09:38:38.637Z,14.76
2018-07-25T09:41:07.469Z,14.25
2018-07-25T09:43:35.992Z,14.27
2018-07-25T09:46:04.748Z,14.47
2018-07-25T09:48:33.390Z,13.76
2018-07-25T09:51:02.004Z,13.99
2018-07-25T09:53:30.732Z,13.01
2018-07-25T09:55:59.371Z,13.30
2018-07-25T09:58:28.354Z,13.98
2018-07-25T10:00:57.187Z,13.73
2018-07-25T10:03:26.535Z,13.59
2018-07-25T10:05:55.477Z,12.65
2018-07-25T10:08:24.185Z,13.10
2018-07-25T10:10:53.508Z,13.06
2018-07-25T10:13:22.171Z,13.36
2018-07-25T10:15:50.868Z,13.47
2018-07-25T10:18:19.613Z,12.64
2018-07-25T10:20:48.394Z,12.11
2018-07-25T10:23:17.559Z,11.68
2018-07-25T10:25:46.840Z,12.31
2018-07-25T10:28:15.526Z,12.17
2018-07-25T10:30:44.302Z,12.32
2018-07-25T10:33:13.599Z,13.05
2018-07-25T10:35:42.391Z,12.39
2018-07-25T10:38:11.046Z,13.16
2018-07-25T10:40:39.649Z,12.95
2018-07-25T10:43:08.381Z,14.09
2018-07-25T10:45:37.968Z,13.43
2018-07-25T10:48:06.752Z,13.91
2018-07-25T10:50:36.132Z,14.15
2018-07-25T10:53:04.931Z,13.71
2018-07-25T10:55:33.594Z,13.40
2018-07-25T10:59:35.084Z,14.35
2018-07-25T11:02:03.842Z,14.96
2018-07-25T11:04:32.686Z,15.99
2018-07-25T11:07:01.366Z,17.18
2018-07-25T11:09:30.443Z,18.05
2018-07-25T11:11:59.648Z,19.15
2018-07-25T11:14:28.422Z,19.50
2018-07-25T11:16:57.185Z,19.85
2018-07-25T11:19:26.012Z,20.49
2018-07-25T11:21:54.693Z,20.37
2018-07-25T11:24:23.308Z,20.51
2018-07-25T11:26:51.963Z,21.89
2018-07-25T11:29:21.453Z,22.20
2018-07-25T11:31:50.290Z,22.17
2018-07-25T11:34:19.149Z,21.73
2018-07-25T11:36:47.883Z,20.64
2018-07-25T11:39:16.686Z,20.78
2018-07-25T11:41:45.418Z,20.59
2018-07-25T11:44:14.228Z,21.65
2018-07-25T11:46:43.007Z,21.97
2018-07-25T11:49:11.713Z,21.27
2018-07-25T11:51:40.400Z,21.59
2018-07-25T11:54:09.203Z,21.34
2018-07-25T11:56:37.947Z,21.12
2018-07-25T11:59:07.247Z,21.24
2018-07-25T12:01:36.308Z,20.82
2018-07-25T12:04:04.997Z,21.27
2018-07-25T12:06:34.879Z,21.11
2018-07-25T12:09:04.017Z,20.96
2018-07-25T12:11:33.054Z,21.37
2018-07-25T12:14:01.706Z,21.26
2018-07-25T12:16:30.536Z,20.94
2018-07-25T12:18:59.325Z,20.90
2018-07-25T12:25:16.832Z,21.40
2018-07-25T12:27:45.563Z,22.05
2018-07-25T12:30:14.397Z,22.20
2018-07-25T12:32:43.063Z,21.71
2018-07-25T12:35:11.825Z,21.76
2018-07-25T12:37:40.475Z,21.80
2018-07-25T12:40:09.768Z,20.80
2018-07-25T12:42:38.557Z,21.64
2018-07-25T12:45:07.295Z,21.56
2018-07-25T12:47:36.077Z,21.68
2018-07-25T12:50:05.018Z,22.09
2018-07-25T12:52:33.877Z,22.52
2018-07-25T12:55:02.562Z,22.76
2018-07-25T12:57:31.299Z,22.48
2018-07-25T13:00:00.059Z,22.86
2018-07-25T13:02:28.817Z,23.17
2018-07-25T13:04:58.137Z,23.64
2018-07-25T13:07:26.822Z,24.76
2018-07-25T13:09:55.514Z,24.69
2018-07-25T13:12:24.202Z,23.88
2018-07-25T13:14:52.892Z,23.43
2018-07-25T13:17:21.548Z,23.95
2018-07-25T13:19:50.308Z,24.28
2018-07-25T13:22:18.939Z,24.97
2018-07-25T13:24:47.758Z,25.00
2018-07-25T13:27:17.178Z,25.00
2018-07-25T13:29:45.813Z,24.47
2018-07-25T13:32:14.482Z,23.77
2018-07-25T13:34:43.877Z,23.13
2018-07-25T13:37:12.757Z,23.28
2018-07-25T13:39:41.638Z,23.59
2018-07-25T13:42:10.823Z,23.68
2018-07-25T13:44:39.629Z,23.37
2018-07-25T13:47:08.294Z,23.27
2018-07-25T13:49:37.019Z,23.59
2018-07-25T13:52:05.730Z,23.69
2018-07-25T13:54:34.432Z,24.01
2018-07-25T13:57:03.064Z,23.85
2018-07-25T13:59:31.700Z,24.20
2018-07-25T14:02:01.240Z,24.38
2018-07-25T14:04:30.267Z,24.04
2018-07-25T14:06:58.972Z,24.43
2018-07-25T14:09:27.642Z,23.78
2018-07-25T14:11:56.338Z,24.49
2018-07-25T14:14:25.317Z,24.73
2018-07-25T14:16:53.974Z,25.59
2018-07-25T14:19:22.594Z,25.64
2018-07-25T14:21:51.425Z,27.10
2018-07-25T14:24:20.245Z,26.91
2018-07-25T14:26:49.174Z,27.16
2018-07-25T14:29:17.813Z,28.60
2018-07-25T14:31:46.467Z,28.52
2018-07-25T14:34:15.170Z,29.51
2018-07-25T14:36:43.754Z,30.26
2018-07-25T14:39:12.852Z,29.92
2018-07-25T14:41:41.917Z,30.34
2018-07-25T14:44:11.149Z,30.28
2018-07-25T14:46:39.855Z,30.22
2018-07-25T14:49:08.419Z,30.13
2018-07-25T14:51:37.073Z,30.94
2018-07-25T14:54:05.741Z,30.25
2018-07-25T14:56:34.394Z,30.61
2018-07-25T14:59:03.067Z,30.94
2018-07-25T15:01:31.734Z,31.03
2018-07-25T15:04:01.098Z,31.98
2018-07-25T15:06:29.893Z,32.37
2018-07-25T15:09:00.388Z,33.02
2018-07-25T15:11:29.354Z,31.93
2018-07-25T15:13:58.123Z,31.33
2018-07-25T15:16:27.491Z,31.17
2018-07-25T15:18:56.096Z,30.56
2018-07-25T15:21:25.379Z,31.32
2018-07-25T15:23:59.143Z,30.66
2018-07-25T15:26:28.456Z,30.26
2018-07-25T15:28:57.496Z,30.77
2018-07-25T15:31:26.108Z,32.43
2018-07-25T15:33:54.811Z,33.49
2018-07-25T15:36:42.031Z,33.38
2018-07-25T15:39:20.430Z,32.10
2018-07-25T15:41:49.901Z,32.08
2018-07-25T15:44:19.447Z,32.90
2018-07-25T15:46:48.247Z,32.96
2018-07-25T15:49:16.932Z,33.07
2018-07-25T15:51:45.625Z,32.98
2018-07-25T15:54:14.379Z,33.81
2018-07-25T15:56:42.985Z,33.52
2018-07-25T15:59:11.629Z,34.76
2018-07-25T16:01:40.342Z,33.56
2018-07-25T16:04:09.603Z,34.08
2018-07-25T16:06:38.298Z,35.10
2018-07-25T16:09:10.618Z,34.65
2018-07-25T16:11:39.650Z,34.92
2018-07-25T16:14:08.808Z,33.97
2018-07-25T16:16:37.647Z,34.35
2018-07-25T16:19:06.595Z,35.86
2018-07-25T16:21:35.234Z,35.68
2018-07-25T16:24:04.662Z,34.84
2018-07-25T16:26:33.385Z,36.28
2018-07-25T16:29:03.926Z,35.76
2018-07-25T16:31:34.955Z,37.16
2018-07-25T16:34:04.059Z,34.98
2018-07-25T16:36:32.813Z,34.62
2018-07-25T16:39:02.299Z,33.73
2018-07-25T16:41:30.919Z,34.67
2018-07-25T16:43:59.580Z,33.90
2018-07-25T16:46:28.398Z,33.57
2018-07-25T16:48:57.013Z,33.49
2018-07-25T16:51:25.689Z,33.89
2018-07-25T16:53:54.357Z,34.92
2018-07-25T16:56:22.990Z,35.69
2018-07-25T16:58:51.610Z,37.38
2018-07-25T17:01:20.383Z,37.57
2018-07-25T17:03:49.023Z,36.20
2018-07-25T17:06:17.778Z,36.04
2018-07-25T17:08:46.354Z,35.62
2018-07-25T17:11:14.991Z,34.32
2018-07-25T17:13:43.664Z,34.00
2018-07-25T17:16:13.240Z,33.83
2018-07-25T17:18:41.850Z,36.66
2018-07-25T17:21:10.634Z,35.67
2018-07-25T17:23:39.323Z,34.69
2018-07-25T17:26:08.079Z,34.74
2018-07-25T17:28:37.428Z,33.14
2018-07-25T17:31:06.638Z,32.95
2018-07-25T17:33:35.390Z,34.82
2018-07-25T17:36:04.073Z,34.21
2018-07-25T17:38:32.763Z,33.04
2018-07-25T17:41:01.396Z,32.96
2018-07-25T17:43:30.049Z,34.36
2018-07-25T17:45:58.834Z,34.91
2018-07-25T17:48:27.464Z,38.46
2018-07-25T17:50:56.119Z,39.61
2018-07-25T17:53:24.758Z,39.34
2018-07-25T17:55:53.449Z,38.10
2018-07-25T17:58:22.205Z,37.83
2018-07-25T18:00:51.419Z,36.86
2018-07-25T18:03:20.415Z,38.82
2018-07-25T18:05:49.188Z,39.41
2018-07-25T18:08:18.555Z,41.24
2018-07-25T18:10:47.350Z,39.99
2018-07-25T18:14:24.236Z,40.04
2018-07-25T18:16:53.213Z,41.34
2018-07-25T18:19:22.389Z,40.60
2018-07-25T18:21:51.491Z,40.05
2018-07-25T18:24:21.376Z,44.84
2018-07-25T18:26:50.090Z,44.02
2018-07-25T18:29:19.164Z,43.87
2018-07-25T18:31:48.749Z,47.11
2018-07-25T18:34:17.770Z,46.86
2018-07-25T18:36:46.955Z,47.94
2018-07-25T18:39:15.940Z,48.93
2018-07-25T18:41:44.710Z,50.29
2018-07-25T18:44:14.011Z,54.04
2018-07-25T18:46:44.874Z,54.75
2018-07-25T18:49:14.339Z,52.87
2018-07-25T18:51:43.400Z,51.92
2018-07-25T18:54:12.394Z,54.42
2018-07-25T18:56:41.734Z,52.18
2018-07-25T18:59:11.290Z,52.70
2018-07-25T19:01:40.316Z,53.40
2018-07-25T19:04:09.218Z,53.97
2018-07-25T19:06:38.583Z,55.05
2018-07-25T19:09:13.138Z,54.51
2018-07-25T19:11:43.053Z,54.89
2018-07-25T19:14:16.855Z,58.69
2018-07-25T19:16:46.251Z,58.72
2018-07-25T19:19:16.519Z,56.99
2018-07-25T19:21:45.569Z,57.29
2018-07-25T19:24:14.618Z,58.76
2018-07-25T19:26:43.603Z,58.50
2018-07-25T19:29:12.396Z,59.03
2018-07-25T19:31:41.250Z,58.93
2018-07-25T19:34:10.025Z,58.38
2018-07-25T19:36:38.943Z,58.99
2018-07-25T19:39:10.251Z,60.15
2018-07-25T19:41:39.848Z,60.81
2018-07-25T19:44:09.584Z,62.79
2018-07-25T19:46:38.665Z,61.63
2018-07-25T19:49:07.670Z,61.99
2018-07-25T19:51:36.708Z,63.46
2018-07-25T19:54:05.905Z,64.01
2018-07-25T19:56:34.755Z,63.33
2018-07-25T19:59:03.994Z,64.31
2018-07-25T20:01:33.165Z,65.72
2018-07-25T20:04:02.342Z,65.36
2018-07-25T20:06:31.686Z,65.68
2018-07-25T20:09:00.745Z,67.33
2018-07-25T20:11:29.920Z,66.59
2018-07-25T20:14:04.242Z,66.25
2018-07-25T20:16:33.249Z,66.46
2018-07-25T20:19:02.610Z,67.84
2018-07-25T20:21:32.065Z,67.33
2018-07-25T20:24:01.341Z,68.15
2018-07-25T20:26:30.229Z,70.32
2018-07-25T20:28:59.625Z,70.10
2018-07-25T20:31:28.827Z,69.83
2018-07-25T20:33:58.216Z,70.34
2018-07-25T20:36:27.040Z,70.43
2018-07-25T20:38:56.132Z,70.39
2018-07-25T20:41:25.299Z,70.82
2018-07-25T20:43:54.124Z,70.59
2018-07-25T20:46:23.236Z,70.67
2018-07-25T20:48:52.401Z,70.61
2018-07-25T20:51:22.436Z,70.57
2018-07-25T20:53:51.775Z,72.40
2018-07-25T20:56:21.206Z,72.05
2018-07-25T20:58:50.039Z,71.87
2018-07-25T21:01:19.275Z,72.07
2018-07-25T21:03:48.485Z,71.79
2018-07-25T21:06:17.680Z,71.97
2018-07-25T21:08:47.029Z,71.59
2018-07-25T21:11:16.175Z,73.38
2018-07-25T21:13:45.424Z,73.80
2018-07-25T21:16:14.304Z,74.45
2018-07-25T21:18:43.034Z,74.86
2018-07-25T21:21:12.093Z,74.62
2018-07-25T21:23:40.927Z,74.98
2018-07-25T21:26:10.504Z,74.43
2018-07-25T21:28:39.418Z,73.93
2018-07-25T21:31:08.944Z,73.96
2018-07-25T21:33:37.615Z,74.44
2018-07-25T21:36:06.520Z,75.14
2018-07-25T21:38:35.917Z,75.74
2018-07-25T21:41:04.904Z,76.56
2018-07-25T21:43:33.645Z,76.35
2018-07-25T21:46:03.369Z,77.00
2018-07-25T21:48:32.565Z,77.34
2018-07-25T21:51:01.991Z,77.90
2018-07-25T21:53:30.976Z,79.21
2018-07-25T21:55:59.875Z,79.09
2018-07-25T21:58:28.551Z,78.86
2018-07-25T22:00:58.671Z,79.32
2018-07-25T22:03:27.695Z,79.36
2018-07-25T22:05:57.025Z,79.37
2018-07-25T22:08:26.286Z,79.73
2018-07-25T22:10:55.476Z,80.22
2018-07-25T22:13:24.466Z,80.63
2018-07-25T22:15:53.965Z,81.09
2018-07-25T22:18:23.237Z,80.70
2018-07-25T22:20:52.068Z,81.08
2018-07-25T22:23:20.739Z,81.39
2018-07-25T22:25:49.965Z,81.59
2018-07-25T22:28:19.332Z,82.28
2018-07-25T22:30:48.303Z,82.24
2018-07-25T22:33:17.111Z,82.29
2018-07-25T22:35:45.784Z,82.59
2018-07-25T22:38:15.275Z,82.60
2018-07-25T22:40:44.318Z,82.92
2018-07-25T22:43:12.922Z,82.85
2018-07-25T22:45:41.889Z,83.42
2018-07-25T22:48:11.066Z,83.09
2018-07-25T22:50:40.080Z,83.60
2018-07-25T22:53:09.068Z,83.83
2018-07-25T22:55:37.776Z,83.90
2018-07-25T22:58:07.000Z,83.93
2018-07-25T23:00:35.946Z,84.10
2018-07-25T23:03:04.661Z,84.96
2018-07-25T23:05:33.441Z,84.93
2018-07-25T23:08:02.290Z,84.89
2018-07-25T23:10:31.215Z,85.63
2018-07-25T23:12:59.880Z,85.67
2018-07-25T23:15:28.635Z,86.32
2018-07-25T23:17:57.351Z,86.03
2018-07-25T23:20:26.866Z,86.11
2018-07-25T23:22:58.001Z,87.46
2018-07-25T23:25:27.330Z,87.55
2018-07-25T23:27:57.455Z,87.88
2018-07-25T23:30:27.374Z,88.08
2018-07-25T23:32:56.156Z,88.36
2018-07-25T23:35:25.136Z,88.44
2018-07-25T23:37:53.795Z,88.03
2018-07-25T23:40:22.589Z,88.57
2018-07-25T23:42:52.012Z,88.61
2018-07-25T23:45:21.070Z,88.92
2018-07-25T23:47:49.830Z,88.57
2018-07-25T23:50:18.555Z,89.27
2018-07-25T23:52:47.946Z,90.62
2018-07-25T23:55:16.590Z,90.50
2018-07-25T23:57:46.522Z,90.64
